sensor_id;sensor_type;location;lat;lon;timestamp;temperature;humidity
47961;DHT22;33721;48.852;9.936;2023-05-07T00:00:37;11.30;99.90
47961;DHT22;33721;48.852;9.936;2023-05-07T00:03:03;11.40;99.90
47961;DHT22;33721;48.852;9.936;2023-05-07T00:05:29;11.40;99.90
47961;DHT22;33721;48.852;9.936;2023-05-07T00:07:55;11.40;99.90
47961;DHT22;33721;48.852;9.936;2023-05-07T00:10:20;11.40;99.90
47961;DHT22;33721;48.852;9.936;2023-05-07T00:12:46;11.30;99.90
47961;DHT22;33721;48.852;9.936;2023-05-07T00:15:11;11.20;99.90
47961;DHT22;33721;48.852;9.936;2023-05-07T00:17:37;11.20;99.90
47961;DHT22;33721;48.852;9.936;2023-05-07T00:20:04;11.20;99.90
47961;DHT22;33721;48.852;9.936;2023-05-07T00:22:30;11.20;99.90
47961;DHT22;33721;48.852;9.936;2023-05-07T00:24:58;11.10;99.90
47961;DHT22;33721;48.852;9.936;2023-05-07T00:27:24;11.10;99.90
47961;DHT22;33721;48.852;9.936;2023-05-07T00:29:50;11.00;99.90
47961;DHT22;33721;48.852;9.936;2023-05-07T00:32:15;11.00;99.90
47961;DHT22;33721;48.852;9.936;2023-05-07T00:34:42;10.90;99.90
47961;DHT22;33721;48.852;9.936;2023-05-07T00:37:08;10.90;99.90
47961;DHT22;33721;48.852;9.936;2023-05-07T00:39:34;10.90;99.90
47961;DHT22;33721;48.852;9.936;2023-05-07T00:42:00;10.90;99.90
47961;DHT22;33721;48.852;9.936;2023-05-07T00:44:26;11.00;99.90
47961;DHT22;33721;48.852;9.936;2023-05-07T00:46:52;10.90;99.90
47961;DHT22;33721;48.852;9.936;2023-05-07T00:49:19;10.90;99.90
47961;DHT22;33721;48.852;9.936;2023-05-07T00:51:46;10.80;99.90
47961;DHT22;33721;48.852;9.936;2023-05-07T00:54:12;10.80;99.90
47961;DHT22;33721;48.852;9.936;2023-05-07T00:56:38;10.70;99.90
47961;DHT22;33721;48.852;9.936;2023-05-07T00:59:05;10.70;99.90
47961;DHT22;33721;48.852;9.936;2023-05-07T01:01:31;10.70;99.90
47961;DHT22;33721;48.852;9.936;2023-05-07T01:03:57;10.70;99.90
47961;DHT22;33721;48.852;9.936;2023-05-07T01:06:25;10.80;99.90
47961;DHT22;33721;48.852;9.936;2023-05-07T01:08:52;10.80;99.90
47961;DHT22;33721;48.852;9.936;2023-05-07T01:11:18;10.70;99.90
47961;DHT22;33721;48.852;9.936;2023-05-07T01:13:47;10.80;99.90
47961;DHT22;33721;48.852;9.936;2023-05-07T01:16:14;10.70;99.90
47961;DHT22;33721;48.852;9.936;2023-05-07T01:18:39;10.80;99.90
47961;DHT22;33721;48.852;9.936;2023-05-07T01:21:05;10.80;99.90
47961;DHT22;33721;48.852;9.936;2023-05-07T01:23:33;10.80;99.90
47961;DHT22;33721;48.852;9.936;2023-05-07T01:26:00;10.70;99.90
47961;DHT22;33721;48.852;9.936;2023-05-07T01:28:26;10.70;99.90
47961;DHT22;33721;48.852;9.936;2023-05-07T01:30:56;10.70;99.90
47961;DHT22;33721;48.852;9.936;2023-05-07T01:33:26;10.70;99.90
47961;DHT22;33721;48.852;9.936;2023-05-07T01:35:53;10.70;99.90
47961;DHT22;33721;48.852;9.936;2023-05-07T01:38:21;10.70;99.90
47961;DHT22;33721;48.852;9.936;2023-05-07T01:40:48;10.70;99.90
47961;DHT22;33721;48.852;9.936;2023-05-07T01:43:13;10.70;99.90
47961;DHT22;33721;48.852;9.936;2023-05-07T01:45:40;10.70;99.90
47961;DHT22;33721;48.852;9.936;2023-05-07T01:48:09;10.40;99.90
47961;DHT22;33721;48.852;9.936;2023-05-07T01:50:36;10.40;99.90
47961;DHT22;33721;48.852;9.936;2023-05-07T01:53:02;10.40;99.90
47961;DHT22;33721;48.852;9.936;2023-05-07T01:55:28;10.40;99.90
47961;DHT22;33721;48.852;9.936;2023-05-07T01:57:53;10.40;99.90
47961;DHT22;33721;48.852;9.936;2023-05-07T02:00:19;10.40;99.90
47961;DHT22;33721;48.852;9.936;2023-05-07T02:02:45;10.40;99.90
47961;DHT22;33721;48.852;9.936;2023-05-07T02:05:10;10.40;99.90
47961;DHT22;33721;48.852;9.936;2023-05-07T02:07:36;10.40;99.90
47961;DHT22;33721;48.852;9.936;2023-05-07T02:10:02;10.40;99.90
47961;DHT22;33721;48.852;9.936;2023-05-07T02:12:28;10.40;99.90
47961;DHT22;33721;48.852;9.936;2023-05-07T02:14:54;10.40;99.90
47961;DHT22;33721;48.852;9.936;2023-05-07T02:17:19;10.40;99.90
47961;DHT22;33721;48.852;9.936;2023-05-07T02:19:45;10.30;99.90
47961;DHT22;33721;48.852;9.936;2023-05-07T02:22:11;10.20;99.90
47961;DHT22;33721;48.852;9.936;2023-05-07T02:24:36;10.20;99.90
47961;DHT22;33721;48.852;9.936;2023-05-07T02:27:02;10.20;99.90
47961;DHT22;33721;48.852;9.936;2023-05-07T02:29:29;10.20;99.90
47961;DHT22;33721;48.852;9.936;2023-05-07T02:31:54;10.10;99.90
47961;DHT22;33721;48.852;9.936;2023-05-07T02:34:21;10.20;99.90
47961;DHT22;33721;48.852;9.936;2023-05-07T02:36:46;10.20;99.90
47961;DHT22;33721;48.852;9.936;2023-05-07T02:39:13;10.20;99.90
47961;DHT22;33721;48.852;9.936;2023-05-07T02:41:38;10.20;99.90
47961;DHT22;33721;48.852;9.936;2023-05-07T02:44:04;10.20;99.90
47961;DHT22;33721;48.852;9.936;2023-05-07T02:46:30;10.20;99.90
47961;DHT22;33721;48.852;9.936;2023-05-07T02:48:56;10.10;99.90
47961;DHT22;33721;48.852;9.936;2023-05-07T02:51:22;10.00;99.90
47961;DHT22;33721;48.852;9.936;2023-05-07T02:53:48;10.00;99.90
47961;DHT22;33721;48.852;9.936;2023-05-07T02:56:14;10.00;99.90
47961;DHT22;33721;48.852;9.936;2023-05-07T02:58:40;9.90;99.90
47961;DHT22;33721;48.852;9.936;2023-05-07T03:01:06;9.80;99.90
47961;DHT22;33721;48.852;9.936;2023-05-07T03:03:32;9.80;99.90
47961;DHT22;33721;48.852;9.936;2023-05-07T03:05:57;9.80;99.90
47961;DHT22;33721;48.852;9.936;2023-05-07T03:08:23;9.70;99.90
47961;DHT22;33721;48.852;9.936;2023-05-07T03:10:49;9.60;99.90
47961;DHT22;33721;48.852;9.936;2023-05-07T03:13:15;9.60;99.90
47961;DHT22;33721;48.852;9.936;2023-05-07T03:15:41;9.60;99.90
47961;DHT22;33721;48.852;9.936;2023-05-07T03:18:06;9.60;99.90
47961;DHT22;33721;48.852;9.936;2023-05-07T03:20:32;9.60;99.90
47961;DHT22;33721;48.852;9.936;2023-05-07T03:22:58;9.50;99.90
47961;DHT22;33721;48.852;9.936;2023-05-07T03:25:23;9.60;99.90
47961;DHT22;33721;48.852;9.936;2023-05-07T03:27:49;9.60;99.90
47961;DHT22;33721;48.852;9.936;2023-05-07T03:30:15;9.60;99.90
47961;DHT22;33721;48.852;9.936;2023-05-07T03:32:40;9.60;99.90
47961;DHT22;33721;48.852;9.936;2023-05-07T03:35:06;9.60;99.90
47961;DHT22;33721;48.852;9.936;2023-05-07T03:37:32;9.60;99.90
47961;DHT22;33721;48.852;9.936;2023-05-07T03:39:58;9.70;99.90
47961;DHT22;33721;48.852;9.936;2023-05-07T03:42:25;9.60;99.90
47961;DHT22;33721;48.852;9.936;2023-05-07T03:44:50;9.60;99.90
47961;DHT22;33721;48.852;9.936;2023-05-07T03:47:16;9.60;99.90
47961;DHT22;33721;48.852;9.936;2023-05-07T03:49:42;9.50;99.90
47961;DHT22;33721;48.852;9.936;2023-05-07T03:52:07;9.60;99.90
47961;DHT22;33721;48.852;9.936;2023-05-07T03:54:33;9.50;99.90
47961;DHT22;33721;48.852;9.936;2023-05-07T03:56:58;9.60;99.90
47961;DHT22;33721;48.852;9.936;2023-05-07T03:59:24;9.60;99.90
47961;DHT22;33721;48.852;9.936;2023-05-07T04:01:50;9.60;99.90
47961;DHT22;33721;48.852;9.936;2023-05-07T04:04:16;9.60;99.90
47961;DHT22;33721;48.852;9.936;2023-05-07T04:06:41;9.60;99.90
47961;DHT22;33721;48.852;9.936;2023-05-07T04:09:07;9.50;99.90
47961;DHT22;33721;48.852;9.936;2023-05-07T04:11:33;9.50;99.90
47961;DHT22;33721;48.852;9.936;2023-05-07T04:13:58;9.40;99.90
47961;DHT22;33721;48.852;9.936;2023-05-07T04:16:24;9.30;99.90
47961;DHT22;33721;48.852;9.936;2023-05-07T04:18:50;9.30;99.90
47961;DHT22;33721;48.852;9.936;2023-05-07T04:21:20;9.30;99.90
47961;DHT22;33721;48.852;9.936;2023-05-07T04:23:47;9.30;99.90
47961;DHT22;33721;48.852;9.936;2023-05-07T04:26:13;9.40;99.90
47961;DHT22;33721;48.852;9.936;2023-05-07T04:28:39;9.40;99.90
47961;DHT22;33721;48.852;9.936;2023-05-07T04:31:06;9.50;99.90
47961;DHT22;33721;48.852;9.936;2023-05-07T04:33:32;9.50;99.90
47961;DHT22;33721;48.852;9.936;2023-05-07T04:35:58;9.60;99.90
47961;DHT22;33721;48.852;9.936;2023-05-07T04:38:29;9.60;99.90
47961;DHT22;33721;48.852;9.936;2023-05-07T04:40:55;9.70;99.90
47961;DHT22;33721;48.852;9.936;2023-05-07T04:43:21;9.80;99.90
47961;DHT22;33721;48.852;9.936;2023-05-07T04:45:47;9.70;99.90
47961;DHT22;33721;48.852;9.936;2023-05-07T04:48:14;9.80;99.90
47961;DHT22;33721;48.852;9.936;2023-05-07T04:50:41;9.80;99.90
47961;DHT22;33721;48.852;9.936;2023-05-07T04:53:07;9.90;99.90
47961;DHT22;33721;48.852;9.936;2023-05-07T04:55:32;10.00;99.90
47961;DHT22;33721;48.852;9.936;2023-05-07T04:57:58;10.00;99.90
47961;DHT22;33721;48.852;9.936;2023-05-07T05:00:25;10.10;99.90
47961;DHT22;33721;48.852;9.936;2023-05-07T05:02:51;10.20;99.90
47961;DHT22;33721;48.852;9.936;2023-05-07T05:05:17;10.40;99.90
47961;DHT22;33721;48.852;9.936;2023-05-07T05:07:42;10.50;99.90
47961;DHT22;33721;48.852;9.936;2023-05-07T05:10:08;10.50;99.90
47961;DHT22;33721;48.852;9.936;2023-05-07T05:12:34;10.60;99.90
47961;DHT22;33721;48.852;9.936;2023-05-07T05:14:59;10.70;99.90
47961;DHT22;33721;48.852;9.936;2023-05-07T05:17:25;10.70;99.90
47961;DHT22;33721;48.852;9.936;2023-05-07T05:19:51;10.60;99.90
47961;DHT22;33721;48.852;9.936;2023-05-07T05:22:16;10.60;99.90
47961;DHT22;33721;48.852;9.936;2023-05-07T05:24:42;10.70;99.90
47961;DHT22;33721;48.852;9.936;2023-05-07T05:27:07;10.70;99.90
47961;DHT22;33721;48.852;9.936;2023-05-07T05:29:33;10.70;99.90
47961;DHT22;33721;48.852;9.936;2023-05-07T05:31:59;10.80;99.90
47961;DHT22;33721;48.852;9.936;2023-05-07T05:34:24;10.90;99.90
47961;DHT22;33721;48.852;9.936;2023-05-07T05:36:50;11.10;99.90
47961;DHT22;33721;48.852;9.936;2023-05-07T05:39:16;11.20;99.90
47961;DHT22;33721;48.852;9.936;2023-05-07T05:41:42;11.20;99.90
47961;DHT22;33721;48.852;9.936;2023-05-07T05:44:07;11.30;99.90
47961;DHT22;33721;48.852;9.936;2023-05-07T05:46:33;11.40;99.90
47961;DHT22;33721;48.852;9.936;2023-05-07T05:48:59;11.50;99.90
47961;DHT22;33721;48.852;9.936;2023-05-07T05:51:24;11.50;99.90
47961;DHT22;33721;48.852;9.936;2023-05-07T05:53:50;11.60;99.90
47961;DHT22;33721;48.852;9.936;2023-05-07T05:56:16;11.60;99.90
47961;DHT22;33721;48.852;9.936;2023-05-07T05:58:42;11.60;99.90
47961;DHT22;33721;48.852;9.936;2023-05-07T06:01:07;11.60;99.90
47961;DHT22;33721;48.852;9.936;2023-05-07T06:03:33;11.60;99.90
47961;DHT22;33721;48.852;9.936;2023-05-07T06:05:59;11.50;99.90
47961;DHT22;33721;48.852;9.936;2023-05-07T06:08:28;11.60;99.90
47961;DHT22;33721;48.852;9.936;2023-05-07T06:10:54;11.70;99.90
47961;DHT22;33721;48.852;9.936;2023-05-07T06:13:19;11.80;99.90
47961;DHT22;33721;48.852;9.936;2023-05-07T06:15:45;12.20;99.90
47961;DHT22;33721;48.852;9.936;2023-05-07T06:18:10;12.60;99.90
47961;DHT22;33721;48.852;9.936;2023-05-07T06:20:36;13.10;99.90
47961;DHT22;33721;48.852;9.936;2023-05-07T06:23:02;13.40;99.90
47961;DHT22;33721;48.852;9.936;2023-05-07T06:25:27;13.70;99.90
47961;DHT22;33721;48.852;9.936;2023-05-07T06:27:53;13.90;99.90
47961;DHT22;33721;48.852;9.936;2023-05-07T06:30:19;13.90;99.90
47961;DHT22;33721;48.852;9.936;2023-05-07T06:32:44;14.20;99.90
47961;DHT22;33721;48.852;9.936;2023-05-07T06:35:10;14.30;99.90
47961;DHT22;33721;48.852;9.936;2023-05-07T06:37:35;14.50;99.90
47961;DHT22;33721;48.852;9.936;2023-05-07T06:40:04;14.80;99.90
47961;DHT22;33721;48.852;9.936;2023-05-07T06:42:30;15.10;99.90
47961;DHT22;33721;48.852;9.936;2023-05-07T06:44:56;15.30;99.90
47961;DHT22;33721;48.852;9.936;2023-05-07T06:47:21;15.60;99.90
47961;DHT22;33721;48.852;9.936;2023-05-07T06:49:47;15.90;99.90
47961;DHT22;33721;48.852;9.936;2023-05-07T06:52:13;16.30;99.90
47961;DHT22;33721;48.852;9.936;2023-05-07T06:54:38;16.60;99.90
47961;DHT22;33721;48.852;9.936;2023-05-07T06:57:04;16.70;99.90
47961;DHT22;33721;48.852;9.936;2023-05-07T06:59:29;16.90;99.90
47961;DHT22;33721;48.852;9.936;2023-05-07T07:01:55;17.00;99.90
47961;DHT22;33721;48.852;9.936;2023-05-07T07:04:21;17.20;99.90
47961;DHT22;33721;48.852;9.936;2023-05-07T07:06:48;17.40;99.90
47961;DHT22;33721;48.852;9.936;2023-05-07T07:09:13;17.50;99.90
47961;DHT22;33721;48.852;9.936;2023-05-07T07:11:39;17.70;99.90
47961;DHT22;33721;48.852;9.936;2023-05-07T07:14:05;17.90;99.90
47961;DHT22;33721;48.852;9.936;2023-05-07T07:16:31;18.00;99.90
47961;DHT22;33721;48.852;9.936;2023-05-07T07:18:56;18.20;99.90
47961;DHT22;33721;48.852;9.936;2023-05-07T07:21:22;18.20;99.90
47961;DHT22;33721;48.852;9.936;2023-05-07T07:23:48;18.30;99.90
47961;DHT22;33721;48.852;9.936;2023-05-07T07:26:13;18.40;99.90
47961;DHT22;33721;48.852;9.936;2023-05-07T07:28:43;18.50;99.90
47961;DHT22;33721;48.852;9.936;2023-05-07T07:31:09;18.70;99.90
47961;DHT22;33721;48.852;9.936;2023-05-07T07:33:35;18.90;99.90
47961;DHT22;33721;48.852;9.936;2023-05-07T07:36:00;19.10;99.90
47961;DHT22;33721;48.852;9.936;2023-05-07T07:38:26;19.20;99.90
47961;DHT22;33721;48.852;9.936;2023-05-07T07:40:52;19.30;99.90
47961;DHT22;33721;48.852;9.936;2023-05-07T07:43:17;19.30;99.90
47961;DHT22;33721;48.852;9.936;2023-05-07T07:45:43;19.40;99.90
47961;DHT22;33721;48.852;9.936;2023-05-07T07:48:09;19.60;99.90
47961;DHT22;33721;48.852;9.936;2023-05-07T07:50:34;19.80;99.90
47961;DHT22;33721;48.852;9.936;2023-05-07T07:53:00;19.90;99.90
47961;DHT22;33721;48.852;9.936;2023-05-07T07:55:26;20.10;99.90
47961;DHT22;33721;48.852;9.936;2023-05-07T07:57:52;20.00;99.90
47961;DHT22;33721;48.852;9.936;2023-05-07T08:00:18;20.10;99.90
47961;DHT22;33721;48.852;9.936;2023-05-07T08:02:44;20.20;99.90
47961;DHT22;33721;48.852;9.936;2023-05-07T08:05:09;20.10;99.90
47961;DHT22;33721;48.852;9.936;2023-05-07T08:07:35;20.20;99.90
47961;DHT22;33721;48.852;9.936;2023-05-07T08:10:01;20.10;99.90
47961;DHT22;33721;48.852;9.936;2023-05-07T08:12:27;20.10;99.90
47961;DHT22;33721;48.852;9.936;2023-05-07T08:14:53;20.10;99.90
47961;DHT22;33721;48.852;9.936;2023-05-07T08:17:18;20.10;99.90
47961;DHT22;33721;48.852;9.936;2023-05-07T08:19:44;20.30;99.90
47961;DHT22;33721;48.852;9.936;2023-05-07T08:22:10;20.70;99.90
47961;DHT22;33721;48.852;9.936;2023-05-07T08:24:36;20.80;99.90
47961;DHT22;33721;48.852;9.936;2023-05-07T08:27:02;21.00;99.90
47961;DHT22;33721;48.852;9.936;2023-05-07T08:29:27;20.90;99.90
47961;DHT22;33721;48.852;9.936;2023-05-07T08:31:53;20.80;99.90
47961;DHT22;33721;48.852;9.936;2023-05-07T08:34:19;20.80;99.90
47961;DHT22;33721;48.852;9.936;2023-05-07T08:36:45;20.80;99.90
47961;DHT22;33721;48.852;9.936;2023-05-07T08:39:14;20.90;99.90
47961;DHT22;33721;48.852;9.936;2023-05-07T08:41:40;21.00;99.90
47961;DHT22;33721;48.852;9.936;2023-05-07T08:44:12;21.20;99.90
47961;DHT22;33721;48.852;9.936;2023-05-07T08:46:37;21.30;99.90
47961;DHT22;33721;48.852;9.936;2023-05-07T08:49:04;21.10;99.90
47961;DHT22;33721;48.852;9.936;2023-05-07T08:51:30;21.30;99.90
47961;DHT22;33721;48.852;9.936;2023-05-07T08:53:56;21.60;99.90
47961;DHT22;33721;48.852;9.936;2023-05-07T08:56:23;21.70;99.90
47961;DHT22;33721;48.852;9.936;2023-05-07T08:58:48;21.60;99.90
47961;DHT22;33721;48.852;9.936;2023-05-07T09:01:15;21.50;99.90
47961;DHT22;33721;48.852;9.936;2023-05-07T09:03:44;21.60;99.90
47961;DHT22;33721;48.852;9.936;2023-05-07T09:06:10;21.50;99.90
47961;DHT22;33721;48.852;9.936;2023-05-07T09:08:36;21.60;99.90
47961;DHT22;33721;48.852;9.936;2023-05-07T09:11:02;21.70;99.90
47961;DHT22;33721;48.852;9.936;2023-05-07T09:13:28;21.80;99.90
47961;DHT22;33721;48.852;9.936;2023-05-07T09:15:54;21.90;99.80
47961;DHT22;33721;48.852;9.936;2023-05-07T09:18:20;21.90;99.80
47961;DHT22;33721;48.852;9.936;2023-05-07T09:20:46;21.80;99.90
47961;DHT22;33721;48.852;9.936;2023-05-07T09:23:11;21.70;99.90
47961;DHT22;33721;48.852;9.936;2023-05-07T09:25:37;21.80;99.90
47961;DHT22;33721;48.852;9.936;2023-05-07T09:28:04;21.70;99.20
47961;DHT22;33721;48.852;9.936;2023-05-07T09:30:32;21.60;99.60
47961;DHT22;33721;48.852;9.936;2023-05-07T09:32:58;21.60;99.90
47961;DHT22;33721;48.852;9.936;2023-05-07T09:35:25;21.60;99.90
47961;DHT22;33721;48.852;9.936;2023-05-07T09:37:58;21.60;99.90
47961;DHT22;33721;48.852;9.936;2023-05-07T09:40:26;21.80;99.90
47961;DHT22;33721;48.852;9.936;2023-05-07T09:42:52;21.80;99.90
47961;DHT22;33721;48.852;9.936;2023-05-07T09:45:25;21.80;99.90
47961;DHT22;33721;48.852;9.936;2023-05-07T09:47:55;21.70;99.90
47961;DHT22;33721;48.852;9.936;2023-05-07T09:50:26;21.60;99.90
47961;DHT22;33721;48.852;9.936;2023-05-07T09:52:52;21.70;99.90
47961;DHT22;33721;48.852;9.936;2023-05-07T09:55:18;22.00;99.80
47961;DHT22;33721;48.852;9.936;2023-05-07T09:57:45;22.20;98.50
47961;DHT22;33721;48.852;9.936;2023-05-07T10:00:12;22.30;98.00
47961;DHT22;33721;48.852;9.936;2023-05-07T10:02:39;22.50;97.60
47961;DHT22;33721;48.852;9.936;2023-05-07T10:05:12;22.90;99.90
47961;DHT22;33721;48.852;9.936;2023-05-07T10:07:39;23.40;99.90
47961;DHT22;33721;48.852;9.936;2023-05-07T10:10:06;23.70;96.80
47961;DHT22;33721;48.852;9.936;2023-05-07T10:12:32;23.90;97.50
47961;DHT22;33721;48.852;9.936;2023-05-07T10:15:09;23.80;93.80
47961;DHT22;33721;48.852;9.936;2023-05-07T10:17:36;23.70;97.10
47961;DHT22;33721;48.852;9.936;2023-05-07T10:20:02;23.70;93.80
47961;DHT22;33721;48.852;9.936;2023-05-07T10:22:37;23.60;94.10
47961;DHT22;33721;48.852;9.936;2023-05-07T10:25:08;23.60;93.50
47961;DHT22;33721;48.852;9.936;2023-05-07T10:27:36;23.30;94.40
47961;DHT22;33721;48.852;9.936;2023-05-07T10:30:37;23.30;95.00
47961;DHT22;33721;48.852;9.936;2023-05-07T10:33:05;23.40;93.10
47961;DHT22;33721;48.852;9.936;2023-05-07T10:35:39;23.10;93.50
47961;DHT22;33721;48.852;9.936;2023-05-07T10:38:06;23.00;94.10
47961;DHT22;33721;48.852;9.936;2023-05-07T10:40:32;23.10;94.90
47961;DHT22;33721;48.852;9.936;2023-05-07T10:43:02;23.10;93.60
47961;DHT22;33721;48.852;9.936;2023-05-07T10:45:31;23.20;95.30
47961;DHT22;33721;48.852;9.936;2023-05-07T10:48:13;23.50;95.60
47961;DHT22;33721;48.852;9.936;2023-05-07T10:50:40;23.90;93.40
47961;DHT22;33721;48.852;9.936;2023-05-07T10:55:51;24.20;94.00
47961;DHT22;33721;48.852;9.936;2023-05-07T10:58:36;24.10;91.90
47961;DHT22;33721;48.852;9.936;2023-05-07T11:01:03;23.70;91.80
47961;DHT22;33721;48.852;9.936;2023-05-07T11:03:29;23.60;91.40
47961;DHT22;33721;48.852;9.936;2023-05-07T11:06:12;23.70;93.70
47961;DHT22;33721;48.852;9.936;2023-05-07T11:08:56;24.10;91.80
47961;DHT22;33721;48.852;9.936;2023-05-07T11:14:10;24.00;91.90
47961;DHT22;33721;48.852;9.936;2023-05-07T11:16:36;23.90;91.90
47961;DHT22;33721;48.852;9.936;2023-05-07T11:19:03;23.90;93.00
47961;DHT22;33721;48.852;9.936;2023-05-07T11:24:01;24.10;90.60
47961;DHT22;33721;48.852;9.936;2023-05-07T11:26:29;24.00;92.00
47961;DHT22;33721;48.852;9.936;2023-05-07T11:28:55;24.20;92.30
47961;DHT22;33721;48.852;9.936;2023-05-07T11:31:24;23.80;92.20
47961;DHT22;33721;48.852;9.936;2023-05-07T11:33:52;23.70;94.10
47961;DHT22;33721;48.852;9.936;2023-05-07T11:36:18;23.90;92.70
47961;DHT22;33721;48.852;9.936;2023-05-07T11:38:45;24.00;92.10
47961;DHT22;33721;48.852;9.936;2023-05-07T11:41:11;24.20;92.30
47961;DHT22;33721;48.852;9.936;2023-05-07T11:43:36;24.40;92.10
47961;DHT22;33721;48.852;9.936;2023-05-07T11:46:09;24.00;90.90
47961;DHT22;33721;48.852;9.936;2023-05-07T11:48:36;24.20;91.80
47961;DHT22;33721;48.852;9.936;2023-05-07T11:51:04;24.20;93.40
47961;DHT22;33721;48.852;9.936;2023-05-07T11:53:40;24.30;93.40
47961;DHT22;33721;48.852;9.936;2023-05-07T11:56:07;24.70;94.00
47961;DHT22;33721;48.852;9.936;2023-05-07T11:58:34;25.10;90.30
47961;DHT22;33721;48.852;9.936;2023-05-07T12:01:00;24.90;91.10
47961;DHT22;33721;48.852;9.936;2023-05-07T12:03:25;24.80;91.70
47961;DHT22;33721;48.852;9.936;2023-05-07T12:05:51;25.00;92.30
47961;DHT22;33721;48.852;9.936;2023-05-07T12:08:21;24.80;89.80
47961;DHT22;33721;48.852;9.936;2023-05-07T12:10:49;24.60;90.50
47961;DHT22;33721;48.852;9.936;2023-05-07T12:13:23;24.60;90.30
47961;DHT22;33721;48.852;9.936;2023-05-07T12:15:52;24.60;90.80
47961;DHT22;33721;48.852;9.936;2023-05-07T12:18:18;24.50;90.10
47961;DHT22;33721;48.852;9.936;2023-05-07T12:20:45;24.40;90.50
47961;DHT22;33721;48.852;9.936;2023-05-07T12:23:12;24.40;87.70
47961;DHT22;33721;48.852;9.936;2023-05-07T12:25:39;24.40;90.00
47961;DHT22;33721;48.852;9.936;2023-05-07T12:28:07;24.60;90.60
47961;DHT22;33721;48.852;9.936;2023-05-07T12:30:53;24.70;88.30
47961;DHT22;33721;48.852;9.936;2023-05-07T12:33:23;24.50;88.40
47961;DHT22;33721;48.852;9.936;2023-05-07T12:35:49;24.00;89.70
47961;DHT22;33721;48.852;9.936;2023-05-07T12:38:16;23.80;89.40
47961;DHT22;33721;48.852;9.936;2023-05-07T12:40:47;23.50;88.40
47961;DHT22;33721;48.852;9.936;2023-05-07T12:43:21;23.40;89.20
47961;DHT22;33721;48.852;9.936;2023-05-07T12:45:49;23.40;90.10
47961;DHT22;33721;48.852;9.936;2023-05-07T12:48:14;23.50;90.70
47961;DHT22;33721;48.852;9.936;2023-05-07T12:50:40;23.90;90.10
47961;DHT22;33721;48.852;9.936;2023-05-07T12:53:07;24.00;89.20
47961;DHT22;33721;48.852;9.936;2023-05-07T12:55:44;23.90;88.40
47961;DHT22;33721;48.852;9.936;2023-05-07T12:58:21;23.70;90.40
47961;DHT22;33721;48.852;9.936;2023-05-07T13:00:50;23.70;90.30
47961;DHT22;33721;48.852;9.936;2023-05-07T13:03:31;23.60;89.40
47961;DHT22;33721;48.852;9.936;2023-05-07T13:06:00;23.60;89.70
47961;DHT22;33721;48.852;9.936;2023-05-07T13:08:31;23.50;90.70
47961;DHT22;33721;48.852;9.936;2023-05-07T13:10:59;23.40;89.30
47961;DHT22;33721;48.852;9.936;2023-05-07T13:13:25;23.50;88.40
47961;DHT22;33721;48.852;9.936;2023-05-07T13:15:51;23.60;87.80
47961;DHT22;33721;48.852;9.936;2023-05-07T13:18:17;23.40;90.10
47961;DHT22;33721;48.852;9.936;2023-05-07T13:20:43;23.40;89.10
47961;DHT22;33721;48.852;9.936;2023-05-07T13:23:08;23.30;90.30
47961;DHT22;33721;48.852;9.936;2023-05-07T13:25:34;23.10;88.90
47961;DHT22;33721;48.852;9.936;2023-05-07T13:28:00;23.10;90.10
47961;DHT22;33721;48.852;9.936;2023-05-07T13:30:26;23.20;90.80
47961;DHT22;33721;48.852;9.936;2023-05-07T13:32:55;23.10;91.10
47961;DHT22;33721;48.852;9.936;2023-05-07T13:35:20;23.10;91.20
47961;DHT22;33721;48.852;9.936;2023-05-07T13:37:46;22.80;90.60
47961;DHT22;33721;48.852;9.936;2023-05-07T13:40:13;22.70;91.00
47961;DHT22;33721;48.852;9.936;2023-05-07T13:42:39;22.50;91.80
47961;DHT22;33721;48.852;9.936;2023-05-07T13:45:05;22.40;92.30
47961;DHT22;33721;48.852;9.936;2023-05-07T13:47:31;22.40;92.20
47961;DHT22;33721;48.852;9.936;2023-05-07T13:49:57;22.40;92.60
47961;DHT22;33721;48.852;9.936;2023-05-07T13:52:22;22.40;93.20
47961;DHT22;33721;48.852;9.936;2023-05-07T13:54:48;22.40;94.10
47961;DHT22;33721;48.852;9.936;2023-05-07T13:57:14;22.30;94.20
47961;DHT22;33721;48.852;9.936;2023-05-07T13:59:40;22.20;94.40
47961;DHT22;33721;48.852;9.936;2023-05-07T14:02:06;22.20;95.70
47961;DHT22;33721;48.852;9.936;2023-05-07T14:04:32;22.20;95.50
47961;DHT22;33721;48.852;9.936;2023-05-07T14:06:57;22.20;95.30
47961;DHT22;33721;48.852;9.936;2023-05-07T14:09:23;22.20;95.30
47961;DHT22;33721;48.852;9.936;2023-05-07T14:11:48;22.10;95.30
47961;DHT22;33721;48.852;9.936;2023-05-07T14:14:17;22.00;94.40
47961;DHT22;33721;48.852;9.936;2023-05-07T14:16:43;22.00;94.20
47961;DHT22;33721;48.852;9.936;2023-05-07T14:19:09;22.00;95.10
47961;DHT22;33721;48.852;9.936;2023-05-07T14:21:34;22.00;95.20
47961;DHT22;33721;48.852;9.936;2023-05-07T14:24:00;22.00;94.40
47961;DHT22;33721;48.852;9.936;2023-05-07T14:26:26;21.90;94.90
47961;DHT22;33721;48.852;9.936;2023-05-07T14:28:52;21.80;95.20
47961;DHT22;33721;48.852;9.936;2023-05-07T14:31:20;21.80;96.10
47961;DHT22;33721;48.852;9.936;2023-05-07T14:33:46;21.70;96.50
47961;DHT22;33721;48.852;9.936;2023-05-07T14:36:12;21.70;97.20
47961;DHT22;33721;48.852;9.936;2023-05-07T14:38:37;21.60;97.50
47961;DHT22;33721;48.852;9.936;2023-05-07T14:41:03;21.60;97.60
47961;DHT22;33721;48.852;9.936;2023-05-07T14:43:29;21.50;98.20
47961;DHT22;33721;48.852;9.936;2023-05-07T14:45:54;21.50;98.50
47961;DHT22;33721;48.852;9.936;2023-05-07T14:48:20;21.60;98.30
47961;DHT22;33721;48.852;9.936;2023-05-07T14:50:49;21.60;98.20
47961;DHT22;33721;48.852;9.936;2023-05-07T14:53:15;21.50;97.70
47961;DHT22;33721;48.852;9.936;2023-05-07T14:55:41;21.50;98.70
47961;DHT22;33721;48.852;9.936;2023-05-07T14:58:07;21.50;98.70
47961;DHT22;33721;48.852;9.936;2023-05-07T15:00:33;21.50;99.20
47961;DHT22;33721;48.852;9.936;2023-05-07T15:03:05;21.50;99.60
47961;DHT22;33721;48.852;9.936;2023-05-07T15:05:32;21.50;99.30
47961;DHT22;33721;48.852;9.936;2023-05-07T15:07:58;21.50;98.70
47961;DHT22;33721;48.852;9.936;2023-05-07T15:10:23;21.40;99.00
47961;DHT22;33721;48.852;9.936;2023-05-07T15:12:49;21.30;99.40
47961;DHT22;33721;48.852;9.936;2023-05-07T15:15:15;21.30;98.80
47961;DHT22;33721;48.852;9.936;2023-05-07T15:17:40;21.20;99.00
47961;DHT22;33721;48.852;9.936;2023-05-07T15:20:07;21.20;99.50
47961;DHT22;33721;48.852;9.936;2023-05-07T15:22:33;21.20;99.70
47961;DHT22;33721;48.852;9.936;2023-05-07T15:24:59;21.30;99.90
47961;DHT22;33721;48.852;9.936;2023-05-07T15:27:25;21.20;99.90
47961;DHT22;33721;48.852;9.936;2023-05-07T15:29:51;20.60;99.90
47961;DHT22;33721;48.852;9.936;2023-05-07T15:32:17;20.30;99.90
47961;DHT22;33721;48.852;9.936;2023-05-07T15:34:43;19.80;99.90
47961;DHT22;33721;48.852;9.936;2023-05-07T15:37:08;19.30;99.90